sensor_id;sensor_type;location;lat;lon;timestamp;P1;durP1;ratioP1;P2;durP2;ratioP2
4565;SDS011;2295;51.050;14.608;2023-08-06T00:02:17;5.57;;;5.07;;
4565;SDS011;2295;51.050;14.608;2023-08-06T00:04:47;6.47;;;5.78;;
4565;SDS011;2295;51.050;14.608;2023-08-06T00:07:15;5.50;;;5.00;;
4565;SDS011;2295;51.050;14.608;2023-08-06T00:09:46;7.13;;;5.10;;
4565;SDS011;2295;51.050;14.608;2023-08-06T00:12:15;9.77;;;5.50;;
4565;SDS011;2295;51.050;14.608;2023-08-06T00:14:43;5.55;;;4.95;;
4565;SDS011;2295;51.050;14.608;2023-08-06T00:17:12;10.88;;;5.40;;
4565;SDS011;2295;51.050;14.608;2023-08-06T00:19:40;5.57;;;5.03;;
4565;SDS011;2295;51.050;14.608;2023-08-06T00:22:10;6.20;;;4.35;;
4565;SDS011;2295;51.050;14.608;2023-08-06T00:24:39;8.23;;;4.90;;
4565;SDS011;2295;51.050;14.608;2023-08-06T00:27:07;5.22;;;4.50;;
4565;SDS011;2295;51.050;14.608;2023-08-06T00:29:35;8.00;;;5.20;;
4565;SDS011;2295;51.050;14.608;2023-08-06T00:32:04;5.18;;;4.65;;
4565;SDS011;2295;51.050;14.608;2023-08-06T00:34:33;11.38;;;5.35;;
4565;SDS011;2295;51.050;14.608;2023-08-06T00:37:02;7.45;;;5.30;;
4565;SDS011;2295;51.050;14.608;2023-08-06T00:39:32;7.57;;;4.32;;
4565;SDS011;2295;51.050;14.608;2023-08-06T00:42:00;4.70;;;4.32;;
4565;SDS011;2295;51.050;14.608;2023-08-06T00:44:29;5.38;;;4.88;;
4565;SDS011;2295;51.050;14.608;2023-08-06T00:46:57;7.43;;;5.30;;
4565;SDS011;2295;51.050;14.608;2023-08-06T00:49:26;6.00;;;4.47;;
4565;SDS011;2295;51.050;14.608;2023-08-06T00:51:56;4.50;;;4.03;;
4565;SDS011;2295;51.050;14.608;2023-08-06T00:54:24;5.33;;;4.87;;
4565;SDS011;2295;51.050;14.608;2023-08-06T00:56:55;6.63;;;3.97;;
4565;SDS011;2295;51.050;14.608;2023-08-06T00:59:24;5.88;;;4.50;;
4565;SDS011;2295;51.050;14.608;2023-08-06T01:01:53;4.70;;;4.30;;
4565;SDS011;2295;51.050;14.608;2023-08-06T01:04:21;9.10;;;4.60;;
4565;SDS011;2295;51.050;14.608;2023-08-06T01:06:52;4.32;;;3.92;;
4565;SDS011;2295;51.050;14.608;2023-08-06T01:09:30;8.53;;;4.50;;
4565;SDS011;2295;51.050;14.608;2023-08-06T01:12:14;5.30;;;4.33;;
4565;SDS011;2295;51.050;14.608;2023-08-06T01:14:51;5.60;;;4.00;;
4565;SDS011;2295;51.050;14.608;2023-08-06T01:17:23;4.63;;;3.90;;
4565;SDS011;2295;51.050;14.608;2023-08-06T01:19:53;5.43;;;4.30;;
4565;SDS011;2295;51.050;14.608;2023-08-06T01:22:23;7.10;;;3.65;;
4565;SDS011;2295;51.050;14.608;2023-08-06T01:24:51;6.63;;;3.95;;
4565;SDS011;2295;51.050;14.608;2023-08-06T01:27:22;6.15;;;4.20;;
4565;SDS011;2295;51.050;14.608;2023-08-06T01:29:57;4.53;;;3.75;;
4565;SDS011;2295;51.050;14.608;2023-08-06T01:32:31;10.95;;;4.25;;
4565;SDS011;2295;51.050;14.608;2023-08-06T01:35:03;6.72;;;3.97;;
4565;SDS011;2295;51.050;14.608;2023-08-06T01:37:35;4.75;;;4.20;;
4565;SDS011;2295;51.050;14.608;2023-08-06T01:40:05;4.40;;;4.10;;
4565;SDS011;2295;51.050;14.608;2023-08-06T01:42:35;8.90;;;4.57;;
4565;SDS011;2295;51.050;14.608;2023-08-06T01:45:03;5.57;;;4.10;;
4565;SDS011;2295;51.050;14.608;2023-08-06T01:47:32;5.10;;;4.20;;
4565;SDS011;2295;51.050;14.608;2023-08-06T01:50:01;4.78;;;4.30;;
4565;SDS011;2295;51.050;14.608;2023-08-06T01:52:30;4.80;;;4.40;;
4565;SDS011;2295;51.050;14.608;2023-08-06T01:54:59;5.80;;;4.30;;
4565;SDS011;2295;51.050;14.608;2023-08-06T01:57:28;5.82;;;4.30;;
4565;SDS011;2295;51.050;14.608;2023-08-06T01:59:56;4.22;;;3.88;;
4565;SDS011;2295;51.050;14.608;2023-08-06T02:02:25;5.03;;;4.53;;
4565;SDS011;2295;51.050;14.608;2023-08-06T02:04:53;7.90;;;4.40;;
4565;SDS011;2295;51.050;14.608;2023-08-06T02:07:22;5.47;;;4.63;;
4565;SDS011;2295;51.050;14.608;2023-08-06T02:09:50;5.65;;;4.10;;
4565;SDS011;2295;51.050;14.608;2023-08-06T02:12:20;13.93;;;4.38;;
4565;SDS011;2295;51.050;14.608;2023-08-06T02:14:49;5.25;;;3.85;;
4565;SDS011;2295;51.050;14.608;2023-08-06T02:17:17;5.20;;;4.70;;
4565;SDS011;2295;51.050;14.608;2023-08-06T02:19:46;8.82;;;5.15;;
4565;SDS011;2295;51.050;14.608;2023-08-06T02:22:14;5.53;;;5.03;;
4565;SDS011;2295;51.050;14.608;2023-08-06T02:24:42;5.65;;;4.25;;
4565;SDS011;2295;51.050;14.608;2023-08-06T02:27:11;5.07;;;3.50;;
4565;SDS011;2295;51.050;14.608;2023-08-06T02:29:41;10.55;;;4.25;;
4565;SDS011;2295;51.050;14.608;2023-08-06T02:32:09;4.25;;;3.38;;
4565;SDS011;2295;51.050;14.608;2023-08-06T02:34:38;4.50;;;3.63;;
4565;SDS011;2295;51.050;14.608;2023-08-06T02:37:06;4.15;;;3.17;;
4565;SDS011;2295;51.050;14.608;2023-08-06T02:39:34;3.72;;;3.45;;
4565;SDS011;2295;51.050;14.608;2023-08-06T02:42:06;2.95;;;2.70;;
4565;SDS011;2295;51.050;14.608;2023-08-06T02:44:34;2.72;;;2.53;;
4565;SDS011;2295;51.050;14.608;2023-08-06T02:47:05;3.22;;;2.92;;
4565;SDS011;2295;51.050;14.608;2023-08-06T02:49:33;3.65;;;3.35;;
4565;SDS011;2295;51.050;14.608;2023-08-06T02:52:02;3.42;;;2.97;;
4565;SDS011;2295;51.050;14.608;2023-08-06T02:54:30;4.60;;;3.25;;
4565;SDS011;2295;51.050;14.608;2023-08-06T02:56:59;5.47;;;3.05;;
4565;SDS011;2295;51.050;14.608;2023-08-06T02:59:27;7.97;;;3.50;;
4565;SDS011;2295;51.050;14.608;2023-08-06T03:01:56;3.20;;;2.90;;
4565;SDS011;2295;51.050;14.608;2023-08-06T03:04:26;3.05;;;2.85;;
4565;SDS011;2295;51.050;14.608;2023-08-06T03:06:54;8.13;;;3.40;;
4565;SDS011;2295;51.050;14.608;2023-08-06T03:09:22;3.13;;;2.92;;
4565;SDS011;2295;51.050;14.608;2023-08-06T03:11:51;3.70;;;3.40;;
4565;SDS011;2295;51.050;14.608;2023-08-06T03:14:20;3.50;;;3.20;;
4565;SDS011;2295;51.050;14.608;2023-08-06T03:16:48;3.17;;;2.97;;
4565;SDS011;2295;51.050;14.608;2023-08-06T03:19:17;4.53;;;3.10;;
4565;SDS011;2295;51.050;14.608;2023-08-06T03:21:46;3.50;;;3.20;;
4565;SDS011;2295;51.050;14.608;2023-08-06T03:24:16;4.45;;;2.28;;
4565;SDS011;2295;51.050;14.608;2023-08-06T03:26:44;7.22;;;2.85;;
4565;SDS011;2295;51.050;14.608;2023-08-06T03:29:13;3.38;;;2.35;;
4565;SDS011;2295;51.050;14.608;2023-08-06T03:31:41;7.13;;;2.22;;
4565;SDS011;2295;51.050;14.608;2023-08-06T03:34:09;3.92;;;2.40;;
4565;SDS011;2295;51.050;14.608;2023-08-06T03:36:38;2.50;;;2.20;;
4565;SDS011;2295;51.050;14.608;2023-08-06T03:39:08;5.00;;;2.00;;
4565;SDS011;2295;51.050;14.608;2023-08-06T03:41:37;6.75;;;1.80;;
4565;SDS011;2295;51.050;14.608;2023-08-06T03:44:05;2.00;;;1.90;;
4565;SDS011;2295;51.050;14.608;2023-08-06T03:46:34;1.77;;;1.50;;
4565;SDS011;2295;51.050;14.608;2023-08-06T03:49:02;5.72;;;1.52;;
4565;SDS011;2295;51.050;14.608;2023-08-06T03:51:31;1.60;;;1.50;;
4565;SDS011;2295;51.050;14.608;2023-08-06T03:53:59;5.10;;;2.08;;
4565;SDS011;2295;51.050;14.608;2023-08-06T03:56:29;2.35;;;1.60;;
4565;SDS011;2295;51.050;14.608;2023-08-06T03:58:57;1.77;;;1.67;;
4565;SDS011;2295;51.050;14.608;2023-08-06T04:01:26;2.47;;;1.60;;
4565;SDS011;2295;51.050;14.608;2023-08-06T04:03:54;2.75;;;1.60;;
4565;SDS011;2295;51.050;14.608;2023-08-06T04:06:23;4.63;;;1.35;;
4565;SDS011;2295;51.050;14.608;2023-08-06T04:08:51;9.10;;;1.63;;
4565;SDS011;2295;51.050;14.608;2023-08-06T04:11:20;2.60;;;2.10;;
4565;SDS011;2295;51.050;14.608;2023-08-06T04:13:50;2.25;;;2.13;;
4565;SDS011;2295;51.050;14.608;2023-08-06T04:16:18;1.75;;;1.65;;
4565;SDS011;2295;51.050;14.608;2023-08-06T04:18:47;1.85;;;1.75;;
4565;SDS011;2295;51.050;14.608;2023-08-06T04:21:15;1.70;;;1.60;;
4565;SDS011;2295;51.050;14.608;2023-08-06T04:23:44;1.88;;;1.77;;
4565;SDS011;2295;51.050;14.608;2023-08-06T04:26:12;3.70;;;1.40;;
4565;SDS011;2295;51.050;14.608;2023-08-06T04:28:41;1.80;;;1.55;;
4565;SDS011;2295;51.050;14.608;2023-08-06T04:31:10;1.60;;;1.50;;
4565;SDS011;2295;51.050;14.608;2023-08-06T04:33:39;3.28;;;1.77;;
4565;SDS011;2295;51.050;14.608;2023-08-06T04:36:07;5.90;;;2.00;;
4565;SDS011;2295;51.050;14.608;2023-08-06T04:38:36;2.28;;;2.08;;
4565;SDS011;2295;51.050;14.608;2023-08-06T04:41:05;7.72;;;2.15;;
4565;SDS011;2295;51.050;14.608;2023-08-06T04:43:33;2.33;;;2.13;;
4565;SDS011;2295;51.050;14.608;2023-08-06T04:46:02;3.67;;;2.10;;
4565;SDS011;2295;51.050;14.608;2023-08-06T04:48:31;3.08;;;2.00;;
4565;SDS011;2295;51.050;14.608;2023-08-06T04:51:00;2.55;;;2.30;;
4565;SDS011;2295;51.050;14.608;2023-08-06T04:53:28;2.40;;;2.25;;
4565;SDS011;2295;51.050;14.608;2023-08-06T04:55:57;2.03;;;1.77;;
4565;SDS011;2295;51.050;14.608;2023-08-06T04:58:25;1.88;;;1.77;;
4565;SDS011;2295;51.050;14.608;2023-08-06T05:00:54;1.70;;;1.60;;
4565;SDS011;2295;51.050;14.608;2023-08-06T05:03:22;2.72;;;1.90;;
4565;SDS011;2295;51.050;14.608;2023-08-06T05:05:52;2.47;;;1.95;;
4565;SDS011;2295;51.050;14.608;2023-08-06T05:08:21;4.78;;;2.20;;
4565;SDS011;2295;51.050;14.608;2023-08-06T05:10:49;1.67;;;1.58;;
4565;SDS011;2295;51.050;14.608;2023-08-06T05:13:17;3.35;;;2.25;;
4565;SDS011;2295;51.050;14.608;2023-08-06T05:15:46;1.80;;;1.60;;
4565;SDS011;2295;51.050;14.608;2023-08-06T05:18:15;1.60;;;1.50;;
4565;SDS011;2295;51.050;14.608;2023-08-06T05:20:43;1.90;;;1.80;;
4565;SDS011;2295;51.050;14.608;2023-08-06T05:23:14;4.82;;;1.70;;
4565;SDS011;2295;51.050;14.608;2023-08-06T05:25:43;2.58;;;2.10;;
4565;SDS011;2295;51.050;14.608;2023-08-06T05:28:11;3.60;;;1.70;;
4565;SDS011;2295;51.050;14.608;2023-08-06T05:30:43;2.15;;;1.95;;
4565;SDS011;2295;51.050;14.608;2023-08-06T05:33:11;1.77;;;1.67;;
4565;SDS011;2295;51.050;14.608;2023-08-06T05:35:40;1.90;;;1.80;;
4565;SDS011;2295;51.050;14.608;2023-08-06T05:38:09;3.42;;;1.95;;
4565;SDS011;2295;51.050;14.608;2023-08-06T05:40:39;1.70;;;1.60;;
4565;SDS011;2295;51.050;14.608;2023-08-06T05:43:07;3.15;;;1.60;;
4565;SDS011;2295;51.050;14.608;2023-08-06T05:45:36;2.85;;;1.70;;
4565;SDS011;2295;51.050;14.608;2023-08-06T05:48:04;1.85;;;1.75;;
4565;SDS011;2295;51.050;14.608;2023-08-06T05:50:33;2.47;;;1.63;;
4565;SDS011;2295;51.050;14.608;2023-08-06T05:53:01;2.30;;;1.80;;
4565;SDS011;2295;51.050;14.608;2023-08-06T05:55:30;3.90;;;1.80;;
4565;SDS011;2295;51.050;14.608;2023-08-06T05:58:04;5.32;;;1.63;;
4565;SDS011;2295;51.050;14.608;2023-08-06T06:00:32;1.80;;;1.70;;
4565;SDS011;2295;51.050;14.608;2023-08-06T06:03:01;2.08;;;1.98;;
4565;SDS011;2295;51.050;14.608;2023-08-06T06:05:30;6.55;;;2.10;;
4565;SDS011;2295;51.050;14.608;2023-08-06T06:07:58;1.60;;;1.50;;
4565;SDS011;2295;51.050;14.608;2023-08-06T06:10:27;1.77;;;1.67;;
4565;SDS011;2295;51.050;14.608;2023-08-06T06:12:55;2.55;;;1.67;;
4565;SDS011;2295;51.050;14.608;2023-08-06T06:15:25;2.83;;;1.77;;
4565;SDS011;2295;51.050;14.608;2023-08-06T06:17:54;2.67;;;2.47;;
4565;SDS011;2295;51.050;14.608;2023-08-06T06:20:23;1.93;;;1.83;;
4565;SDS011;2295;51.050;14.608;2023-08-06T06:22:51;2.90;;;1.63;;
4565;SDS011;2295;51.050;14.608;2023-08-06T06:25:23;2.10;;;2.00;;
4565;SDS011;2295;51.050;14.608;2023-08-06T06:27:51;1.85;;;1.75;;
4565;SDS011;2295;51.050;14.608;2023-08-06T06:30:19;2.13;;;1.80;;
4565;SDS011;2295;51.050;14.608;2023-08-06T06:32:49;2.07;;;1.70;;
4565;SDS011;2295;51.050;14.608;2023-08-06T06:35:18;2.67;;;1.77;;
4565;SDS011;2295;51.050;14.608;2023-08-06T06:37:46;1.95;;;1.85;;
4565;SDS011;2295;51.050;14.608;2023-08-06T06:40:15;1.83;;;1.73;;
4565;SDS011;2295;51.050;14.608;2023-08-06T06:42:44;3.10;;;2.20;;
4565;SDS011;2295;51.050;14.608;2023-08-06T06:45:13;3.77;;;2.00;;
4565;SDS011;2295;51.050;14.608;2023-08-06T06:47:41;2.77;;;1.87;;
4565;SDS011;2295;51.050;14.608;2023-08-06T06:50:11;3.63;;;2.17;;
4565;SDS011;2295;51.050;14.608;2023-08-06T06:52:39;1.90;;;1.80;;
4565;SDS011;2295;51.050;14.608;2023-08-06T06:55:08;1.70;;;1.60;;
4565;SDS011;2295;51.050;14.608;2023-08-06T06:57:37;4.70;;;2.40;;
4565;SDS011;2295;51.050;14.608;2023-08-06T07:00:06;2.77;;;1.70;;
4565;SDS011;2295;51.050;14.608;2023-08-06T07:02:35;3.93;;;1.73;;
4565;SDS011;2295;51.050;14.608;2023-08-06T07:05:04;3.57;;;1.87;;
4565;SDS011;2295;51.050;14.608;2023-08-06T07:07:35;2.20;;;2.10;;
4565;SDS011;2295;51.050;14.608;2023-08-06T07:10:04;2.23;;;1.97;;
4565;SDS011;2295;51.050;14.608;2023-08-06T07:12:36;2.50;;;1.50;;
4565;SDS011;2295;51.050;14.608;2023-08-06T07:15:05;3.70;;;1.40;;
4565;SDS011;2295;51.050;14.608;2023-08-06T07:17:34;1.70;;;1.60;;
4565;SDS011;2295;51.050;14.608;2023-08-06T07:20:03;5.33;;;1.50;;
4565;SDS011;2295;51.050;14.608;2023-08-06T07:22:35;1.70;;;1.60;;
4565;SDS011;2295;51.050;14.608;2023-08-06T07:25:04;1.70;;;1.60;;
4565;SDS011;2295;51.050;14.608;2023-08-06T07:27:33;2.30;;;1.73;;
4565;SDS011;2295;51.050;14.608;2023-08-06T07:30:01;1.70;;;1.60;;
4565;SDS011;2295;51.050;14.608;2023-08-06T07:32:32;1.90;;;1.70;;
4565;SDS011;2295;51.050;14.608;2023-08-06T07:35:00;3.20;;;1.50;;
4565;SDS011;2295;51.050;14.608;2023-08-06T07:37:29;1.87;;;1.77;;
4565;SDS011;2295;51.050;14.608;2023-08-06T07:39:59;2.70;;;1.43;;
4565;SDS011;2295;51.050;14.608;2023-08-06T07:42:28;1.70;;;1.60;;
4565;SDS011;2295;51.050;14.608;2023-08-06T07:44:57;2.77;;;1.70;;
4565;SDS011;2295;51.050;14.608;2023-08-06T07:47:29;2.33;;;2.13;;
4565;SDS011;2295;51.050;14.608;2023-08-06T07:49:59;3.87;;;1.90;;
4565;SDS011;2295;51.050;14.608;2023-08-06T07:52:30;2.10;;;2.00;;
4565;SDS011;2295;51.050;14.608;2023-08-06T07:55:00;2.13;;;2.03;;
4565;SDS011;2295;51.050;14.608;2023-08-06T07:57:31;2.20;;;2.10;;
4565;SDS011;2295;51.050;14.608;2023-08-06T08:00:04;2.20;;;2.10;;
4565;SDS011;2295;51.050;14.608;2023-08-06T08:02:33;2.10;;;2.00;;
4565;SDS011;2295;51.050;14.608;2023-08-06T08:05:01;2.20;;;2.10;;
4565;SDS011;2295;51.050;14.608;2023-08-06T08:07:30;2.27;;;2.17;;
4565;SDS011;2295;51.050;14.608;2023-08-06T08:10:01;2.57;;;2.17;;
4565;SDS011;2295;51.050;14.608;2023-08-06T08:12:31;2.50;;;2.30;;
4565;SDS011;2295;51.050;14.608;2023-08-06T08:15:00;2.10;;;2.00;;
4565;SDS011;2295;51.050;14.608;2023-08-06T08:17:29;6.40;;;2.07;;
4565;SDS011;2295;51.050;14.608;2023-08-06T08:19:58;8.40;;;2.30;;
4565;SDS011;2295;51.050;14.608;2023-08-06T08:22:27;2.93;;;2.63;;
4565;SDS011;2295;51.050;14.608;2023-08-06T08:24:55;3.53;;;2.93;;
4565;SDS011;2295;51.050;14.608;2023-08-06T08:27:25;3.00;;;2.80;;
4565;SDS011;2295;51.050;14.608;2023-08-06T08:29:54;3.10;;;2.90;;
4565;SDS011;2295;51.050;14.608;2023-08-06T08:32:22;3.42;;;3.20;;
4565;SDS011;2295;51.050;14.608;2023-08-06T08:34:57;3.90;;;3.60;;
4565;SDS011;2295;51.050;14.608;2023-08-06T08:37:29;11.18;;;3.95;;
4565;SDS011;2295;51.050;14.608;2023-08-06T08:39:57;4.87;;;4.37;;
4565;SDS011;2295;51.050;14.608;2023-08-06T08:42:28;4.68;;;4.28;;
4565;SDS011;2295;51.050;14.608;2023-08-06T08:44:57;4.47;;;4.15;;
4565;SDS011;2295;51.050;14.608;2023-08-06T08:47:26;4.87;;;4.47;;
4565;SDS011;2295;51.050;14.608;2023-08-06T08:49:54;5.90;;;4.63;;
4565;SDS011;2295;51.050;14.608;2023-08-06T08:52:26;5.55;;;5.05;;
4565;SDS011;2295;51.050;14.608;2023-08-06T08:54:59;4.80;;;4.40;;
4565;SDS011;2295;51.050;14.608;2023-08-06T08:57:31;5.00;;;4.60;;
4565;SDS011;2295;51.050;14.608;2023-08-06T08:59:59;5.80;;;5.30;;
4565;SDS011;2295;51.050;14.608;2023-08-06T09:02:28;6.40;;;4.38;;
4565;SDS011;2295;51.050;14.608;2023-08-06T09:04:58;5.22;;;4.85;;
4565;SDS011;2295;51.050;14.608;2023-08-06T09:07:31;5.38;;;4.88;;
4565;SDS011;2295;51.050;14.608;2023-08-06T09:10:06;7.90;;;5.03;;
4565;SDS011;2295;51.050;14.608;2023-08-06T09:12:39;5.57;;;5.07;;
4565;SDS011;2295;51.050;14.608;2023-08-06T09:15:11;5.33;;;4.83;;
4565;SDS011;2295;51.050;14.608;2023-08-06T09:17:40;5.03;;;4.55;;
4565;SDS011;2295;51.050;14.608;2023-08-06T09:20:10;5.25;;;4.70;;
4565;SDS011;2295;51.050;14.608;2023-08-06T09:22:39;5.30;;;4.80;;
4565;SDS011;2295;51.050;14.608;2023-08-06T09:25:09;7.15;;;4.82;;
4565;SDS011;2295;51.050;14.608;2023-08-06T09:27:39;5.43;;;4.93;;
4565;SDS011;2295;51.050;14.608;2023-08-06T09:30:08;5.90;;;5.40;;
4565;SDS011;2295;51.050;14.608;2023-08-06T09:32:45;8.18;;;5.30;;
4565;SDS011;2295;51.050;14.608;2023-08-06T09:35:15;5.72;;;5.22;;
4565;SDS011;2295;51.050;14.608;2023-08-06T09:37:45;5.00;;;4.60;;
4565;SDS011;2295;51.050;14.608;2023-08-06T09:40:24;4.80;;;4.27;;
4565;SDS011;2295;51.050;14.608;2023-08-06T09:42:59;4.50;;;4.17;;
4565;SDS011;2295;51.050;14.608;2023-08-06T09:45:32;5.00;;;4.00;;
4565;SDS011;2295;51.050;14.608;2023-08-06T09:48:02;4.50;;;4.20;;
4565;SDS011;2295;51.050;14.608;2023-08-06T09:50:38;4.97;;;4.40;;
4565;SDS011;2295;51.050;14.608;2023-08-06T09:53:09;4.47;;;4.10;;
4565;SDS011;2295;51.050;14.608;2023-08-06T09:55:38;4.77;;;4.40;;
4565;SDS011;2295;51.050;14.608;2023-08-06T09:58:09;4.80;;;4.38;;
4565;SDS011;2295;51.050;14.608;2023-08-06T10:00:38;4.60;;;4.30;;
4565;SDS011;2295;51.050;14.608;2023-08-06T10:03:06;5.77;;;4.43;;
4565;SDS011;2295;51.050;14.608;2023-08-06T10:05:37;4.97;;;4.40;;
4565;SDS011;2295;51.050;14.608;2023-08-06T10:08:06;5.40;;;4.90;;
4565;SDS011;2295;51.050;14.608;2023-08-06T10:10:35;5.10;;;4.70;;
4565;SDS011;2295;51.050;14.608;2023-08-06T10:13:04;5.43;;;5.00;;
4565;SDS011;2295;51.050;14.608;2023-08-06T10:15:36;5.23;;;4.30;;
4565;SDS011;2295;51.050;14.608;2023-08-06T10:18:05;6.43;;;4.80;;
4565;SDS011;2295;51.050;14.608;2023-08-06T10:20:35;4.80;;;4.40;;
4565;SDS011;2295;51.050;14.608;2023-08-06T10:23:04;6.10;;;5.17;;
4565;SDS011;2295;51.050;14.608;2023-08-06T10:25:34;5.90;;;5.30;;
4565;SDS011;2295;51.050;14.608;2023-08-06T10:28:08;6.10;;;4.90;;
4565;SDS011;2295;51.050;14.608;2023-08-06T10:30:43;5.53;;;5.03;;
4565;SDS011;2295;51.050;14.608;2023-08-06T10:33:12;6.60;;;5.20;;
4565;SDS011;2295;51.050;14.608;2023-08-06T10:35:46;5.27;;;4.87;;
4565;SDS011;2295;51.050;14.608;2023-08-06T10:38:17;5.87;;;5.37;;
4565;SDS011;2295;51.050;14.608;2023-08-06T10:40:49;6.30;;;5.30;;
4565;SDS011;2295;51.050;14.608;2023-08-06T10:43:24;5.80;;;5.23;;
4565;SDS011;2295;51.050;14.608;2023-08-06T10:45:58;5.60;;;5.10;;
4565;SDS011;2295;51.050;14.608;2023-08-06T10:48:31;7.00;;;5.57;;
4565;SDS011;2295;51.050;14.608;2023-08-06T10:51:03;6.40;;;5.90;;
4565;SDS011;2295;51.050;14.608;2023-08-06T10:53:36;6.17;;;5.67;;
4565;SDS011;2295;51.050;14.608;2023-08-06T10:56:11;5.90;;;5.40;;
4565;SDS011;2295;51.050;14.608;2023-08-06T10:58:40;7.37;;;5.40;;
4565;SDS011;2295;51.050;14.608;2023-08-06T11:01:10;6.10;;;5.60;;
4565;SDS011;2295;51.050;14.608;2023-08-06T11:03:39;12.17;;;6.03;;
4565;SDS011;2295;51.050;14.608;2023-08-06T11:06:10;8.53;;;5.07;;
4565;SDS011;2295;51.050;14.608;2023-08-06T11:08:47;5.30;;;4.90;;
4565;SDS011;2295;51.050;14.608;2023-08-06T11:11:16;5.33;;;4.60;;
4565;SDS011;2295;51.050;14.608;2023-08-06T11:13:45;5.90;;;4.77;;
4565;SDS011;2295;51.050;14.608;2023-08-06T11:16:17;4.73;;;3.97;;
4565;SDS011;2295;51.050;14.608;2023-08-06T11:18:47;4.00;;;3.70;;
4565;SDS011;2295;51.050;14.608;2023-08-06T11:21:19;6.90;;;3.77;;
4565;SDS011;2295;51.050;14.608;2023-08-06T11:23:51;4.33;;;3.93;;
4565;SDS011;2295;51.050;14.608;2023-08-06T11:26:20;6.23;;;3.60;;
4565;SDS011;2295;51.050;14.608;2023-08-06T11:28:50;3.93;;;3.67;;
4565;SDS011;2295;51.050;14.608;2023-08-06T11:31:20;4.00;;;3.70;;
4565;SDS011;2295;51.050;14.608;2023-08-06T11:33:52;3.73;;;3.53;;
4565;SDS011;2295;51.050;14.608;2023-08-06T11:36:31;5.30;;;3.43;;
4565;SDS011;2295;51.050;14.608;2023-08-06T11:39:00;3.93;;;3.73;;
4565;SDS011;2295;51.050;14.608;2023-08-06T11:41:29;5.43;;;4.13;;
4565;SDS011;2295;51.050;14.608;2023-08-06T11:43:58;3.53;;;3.33;;
4565;SDS011;2295;51.050;14.608;2023-08-06T11:46:28;3.50;;;3.30;;
4565;SDS011;2295;51.050;14.608;2023-08-06T11:49:17;4.90;;;4.00;;
4565;SDS011;2295;51.050;14.608;2023-08-06T11:51:47;6.20;;;3.47;;
4565;SDS011;2295;51.050;14.608;2023-08-06T11:54:30;4.50;;;3.40;;
4565;SDS011;2295;51.050;14.608;2023-08-06T11:57:00;3.63;;;3.33;;
4565;SDS011;2295;51.050;14.608;2023-08-06T11:59:29;4.63;;;4.23;;
4565;SDS011;2295;51.050;14.608;2023-08-06T12:01:58;4.27;;;3.90;;
4565;SDS011;2295;51.050;14.608;2023-08-06T12:04:29;3.60;;;3.40;;
4565;SDS011;2295;51.050;14.608;2023-08-06T12:07:15;4.17;;;3.77;;
4565;SDS011;2295;51.050;14.608;2023-08-06T12:09:44;4.17;;;3.90;;
4565;SDS011;2295;51.050;14.608;2023-08-06T12:12:12;4.70;;;4.20;;
4565;SDS011;2295;51.050;14.608;2023-08-06T12:14:44;3.23;;;3.03;;
4565;SDS011;2295;51.050;14.608;2023-08-06T12:17:14;3.47;;;3.13;;
4565;SDS011;2295;51.050;14.608;2023-08-06T12:19:44;5.90;;;3.20;;
4565;SDS011;2295;51.050;14.608;2023-08-06T12:22:16;3.87;;;3.67;;
4565;SDS011;2295;51.050;14.608;2023-08-06T12:24:46;5.07;;;3.73;;
4565;SDS011;2295;51.050;14.608;2023-08-06T12:27:15;3.77;;;3.47;;
4565;SDS011;2295;51.050;14.608;2023-08-06T12:29:44;7.23;;;4.17;;
4565;SDS011;2295;51.050;14.608;2023-08-06T12:32:15;5.17;;;4.37;;
4565;SDS011;2295;51.050;14.608;2023-08-06T12:34:43;5.20;;;3.87;;
4565;SDS011;2295;51.050;14.608;2023-08-06T12:37:22;4.90;;;4.10;;
4565;SDS011;2295;51.050;14.608;2023-08-06T12:39:51;5.40;;;3.83;;
4565;SDS011;2295;51.050;14.608;2023-08-06T12:42:20;5.30;;;4.80;;
4565;SDS011;2295;51.050;14.608;2023-08-06T12:44:48;5.13;;;4.63;;
4565;SDS011;2295;51.050;14.608;2023-08-06T12:47:24;11.13;;;5.33;;
4565;SDS011;2295;51.050;14.608;2023-08-06T12:49:52;5.83;;;5.23;;
4565;SDS011;2295;51.050;14.608;2023-08-06T12:52:21;6.33;;;5.73;;
4565;SDS011;2295;51.050;14.608;2023-08-06T12:54:49;7.77;;;6.10;;
4565;SDS011;2295;51.050;14.608;2023-08-06T12:57:18;13.23;;;7.27;;
4565;SDS011;2295;51.050;14.608;2023-08-06T12:59:46;7.43;;;6.37;;
4565;SDS011;2295;51.050;14.608;2023-08-06T13:02:15;8.23;;;7.10;;
4565;SDS011;2295;51.050;14.608;2023-08-06T13:04:45;9.73;;;7.60;;
4565;SDS011;2295;51.050;14.608;2023-08-06T13:07:15;11.13;;;7.90;;
4565;SDS011;2295;51.050;14.608;2023-08-06T13:09:43;8.83;;;7.93;;
4565;SDS011;2295;51.050;14.608;2023-08-06T13:12:12;12.30;;;8.40;;
4565;SDS011;2295;51.050;14.608;2023-08-06T13:14:40;10.03;;;9.03;;
4565;SDS011;2295;51.050;14.608;2023-08-06T13:17:09;8.73;;;7.93;;
4565;SDS011;2295;51.050;14.608;2023-08-06T13:19:37;16.87;;;9.97;;
4565;SDS011;2295;51.050;14.608;2023-08-06T13:22:07;9.87;;;8.20;;
4565;SDS011;2295;51.050;14.608;2023-08-06T13:24:36;10.70;;;8.70;;
4565;SDS011;2295;51.050;14.608;2023-08-06T13:27:04;8.90;;;8.10;;
4565;SDS011;2295;51.050;14.608;2023-08-06T13:29:35;8.97;;;8.13;;
4565;SDS011;2295;51.050;14.608;2023-08-06T13:32:04;9.80;;;8.80;;
4565;SDS011;2295;51.050;14.608;2023-08-06T13:34:33;8.80;;;8.00;;
4565;SDS011;2295;51.050;14.608;2023-08-06T13:37:01;8.93;;;7.93;;
4565;SDS011;2295;51.050;14.608;2023-08-06T13:39:31;8.50;;;7.70;;
4565;SDS011;2295;51.050;14.608;2023-08-06T13:42:00;9.30;;;8.40;;
4565;SDS011;2295;51.050;14.608;2023-08-06T13:44:28;8.73;;;7.90;;
4565;SDS011;2295;51.050;14.608;2023-08-06T13:47:05;10.27;;;8.00;;
4565;SDS011;2295;51.050;14.608;2023-08-06T13:49:33;11.37;;;7.77;;
4565;SDS011;2295;51.050;14.608;2023-08-06T13:52:02;8.93;;;7.23;;
4565;SDS011;2295;51.050;14.608;2023-08-06T13:54:49;7.70;;;7.00;;
4565;SDS011;2295;51.050;14.608;2023-08-06T13:57:17;7.23;;;6.53;;
4565;SDS011;2295;51.050;14.608;2023-08-06T13:59:45;7.47;;;6.67;;
4565;SDS011;2295;51.050;14.608;2023-08-06T14:02:14;8.20;;;7.30;;
4565;SDS011;2295;51.050;14.608;2023-08-06T14:04:42;8.80;;;7.33;;
4565;SDS011;2295;51.050;14.608;2023-08-06T14:07:19;10.87;;;7.77;;
4565;SDS011;2295;51.050;14.608;2023-08-06T14:09:50;9.20;;;7.67;;
4565;SDS011;2295;51.050;14.608;2023-08-06T14:12:18;11.37;;;7.13;;
4565;SDS011;2295;51.050;14.608;2023-08-06T14:14:49;9.37;;;7.67;;
4565;SDS011;2295;51.050;14.608;2023-08-06T14:17:18;7.53;;;6.83;;
4565;SDS011;2295;51.050;14.608;2023-08-06T14:19:46;8.20;;;7.47;;
4565;SDS011;2295;51.050;14.608;2023-08-06T14:22:15;9.17;;;8.23;;
4565;SDS011;2295;51.050;14.608;2023-08-06T14:24:43;8.37;;;7.67;;
4565;SDS011;2295;51.050;14.608;2023-08-06T14:27:14;8.53;;;7.63;;
4565;SDS011;2295;51.050;14.608;2023-08-06T14:29:43;8.20;;;7.27;;
4565;SDS011;2295;51.050;14.608;2023-08-06T14:32:12;12.83;;;8.40;;
4565;SDS011;2295;51.050;14.608;2023-08-06T14:34:45;9.40;;;8.40;;
4565;SDS011;2295;51.050;14.608;2023-08-06T14:37:13;10.37;;;8.03;;
4565;SDS011;2295;51.050;14.608;2023-08-06T14:39:42;10.77;;;8.53;;
4565;SDS011;2295;51.050;14.608;2023-08-06T14:42:10;9.80;;;8.07;;
4565;SDS011;2295;51.050;14.608;2023-08-06T14:44:40;8.37;;;7.60;;
4565;SDS011;2295;51.050;14.608;2023-08-06T14:47:09;11.20;;;8.53;;
4565;SDS011;2295;51.050;14.608;2023-08-06T14:49:37;9.47;;;8.40;;
4565;SDS011;2295;51.050;14.608;2023-08-06T14:52:06;10.93;;;8.93;;
4565;SDS011;2295;51.050;14.608;2023-08-06T14:54:34;14.03;;;7.73;;
4565;SDS011;2295;51.050;14.608;2023-08-06T14:57:03;13.83;;;8.00;;
4565;SDS011;2295;51.050;14.608;2023-08-06T14:59:32;9.47;;;8.30;;
4565;SDS011;2295;51.050;14.608;2023-08-06T15:02:02;9.53;;;8.30;;
4565;SDS011;2295;51.050;14.608;2023-08-06T15:04:30;10.03;;;8.77;;
4565;SDS011;2295;51.050;14.608;2023-08-06T15:06:59;12.27;;;7.90;;
4565;SDS011;2295;51.050;14.608;2023-08-06T15:09:27;8.17;;;7.10;;
4565;SDS011;2295;51.050;14.608;2023-08-06T15:11:55;9.60;;;8.70;;
4565;SDS011;2295;51.050;14.608;2023-08-06T15:14:27;9.07;;;8.10;;
4565;SDS011;2295;51.050;14.608;2023-08-06T15:16:55;10.00;;;8.07;;